Time;durP1;ratioP1;P1;durP2;ratioP2;P2;SDS_P1;SDS_P2;PMS_P1;PMS_P2;Temp;Humidity;BMP_temperature;BMP_pressure;BME280_temperature;BME280_humidity;BME280_pressure;Samples;Min_cycle;Max_cycle;Signal;HPM_P1;HPM_P2
2023/05/05 00:00:21;;;;;;;12.68;5.82;;;;;;;12.49;100.00;100739.16;5035281;28;20090;-75
2023/05/05 00:02:48;;;;;;;8.68;5.75;;;;;;;11.94;100.00;100621.81;5042314;28;20087;-76
2023/05/05 00:05:14;;;;;;;7.38;4.65;;;;;;;12.48;100.00;100747.97;5034969;28;20046;-75
2023/05/05 00:07:40;;;;;;;8.82;5.85;;;;;;;11.57;100.00;100621.81;5022897;28;20045;-74
2023/05/05 00:10:06;;;;;;;10.82;4.97;;;;;;;12.05;100.00;100755.91;5019968;28;20051;-75
2023/05/05 00:12:31;;;;;;;7.85;4.90;;;;;;;11.48;100.00;100613.94;5008491;28;20026;-74
2023/05/05 00:14:57;;;;;;;8.23;5.63;;;;;;;11.83;100.00;100636.69;5010269;28;20065;-74
2023/05/05 00:17:22;;;;;;;7.95;4.72;;;;;;;12.38;100.00;100739.19;5029877;28;20033;-75
2023/05/05 00:19:48;;;;;;;11.80;5.50;;;;;;;12.46;100.00;100729.53;5031485;28;20038;-72
2023/05/05 00:22:14;;;;;;;8.38;4.90;;;;;;;11.82;100.00;100621.78;5037656;28;20052;-74
2023/05/05 00:24:39;;;;;;;5.85;4.18;;;;;;;11.79;100.00;100633.16;5037052;28;20124;-75
2023/05/05 00:27:05;;;;;;;6.20;4.55;;;;;;;12.21;100.00;100725.19;5028506;28;20616;-74
2023/05/05 00:29:30;;;;;;;6.93;4.82;;;;;;;11.45;100.00;100639.31;5036930;28;20041;-75
2023/05/05 00:31:56;;;;;;;10.45;4.85;;;;;;;12.02;100.00;100726.97;5024977;28;20513;-76
2023/05/05 00:34:22;;;;;;;17.65;5.47;;;;;;;12.09;100.00;100718.19;5011057;28;20053;-74
2023/05/05 00:36:48;;;;;;;7.43;4.18;;;;;;;11.58;100.00;100617.44;5011595;28;20196;-74
2023/05/05 00:39:14;;;;;;;11.13;5.03;;;;;;;12.07;100.00;100698.91;5023350;28;20048;-74
2023/05/05 00:41:39;;;;;;;8.68;5.50;;;;;;;11.52;100.00;100635.81;5030094;28;20083;-73
2023/05/05 00:44:05;;;;;;;9.30;4.82;;;;;;;11.77;100.00;100653.31;5024270;28;20767;-73
2023/05/05 00:46:32;;;;;;;8.23;5.57;;;;;;;11.70;100.00;100616.53;5013320;28;20041;-73
2023/05/05 00:49:00;;;;;;;5.07;4.13;;;;;;;11.75;100.00;100622.66;5015533;28;20038;-75
2023/05/05 00:51:27;;;;;;;7.78;4.78;;;;;;;12.44;100.00;100746.22;5010145;28;20092;-75
2023/05/05 00:53:53;;;;;;;9.88;4.55;;;;;;;12.17;100.00;100757.66;5019468;28;20045;-75
2023/05/05 00:56:20;;;;;;;14.18;4.97;;;;;;;11.67;100.00;100712.06;5019729;28;20128;-74
2023/05/05 00:58:46;;;;;;;9.85;6.35;;;;;;;11.07;100.00;100616.53;5012079;28;20488;-75
2023/05/05 01:01:12;;;;;;;11.35;6.97;;;;;;;11.90;100.00;100742.78;5016962;28;20485;-73
2023/05/05 01:03:40;;;;;;;7.50;5.55;;;;;;;12.18;100.00;100731.34;5011112;28;20034;-73
2023/05/05 01:06:43;;;;;;;17.67;5.15;;;;;;;12.12;100.00;100728.72;5020577;28;20393;-74
2023/05/05 01:09:20;;;;;;;10.20;4.82;;;;;;;12.08;100.00;100732.25;5031546;28;20415;-73
2023/05/05 01:12:10;;;;;;;7.90;4.85;;;;;;;12.23;100.00;100731.34;5035572;28;20115;-75
2023/05/05 01:14:46;;;;;;;10.00;6.80;;;;;;;11.46;100.00;100606.94;5034505;28;20052;-73
2023/05/05 01:17:19;;;;;;;11.57;6.57;;;;;;;11.66;100.00;100701.53;5019708;28;20047;-74
2023/05/05 01:20:00;;;;;;;;;;;;;;;11.82;100.00;100719.97;5038610;28;20049;-74
2023/05/05 01:23:00;;;;;;;9.93;4.63;;;;;;;11.52;100.00;100684.03;5045638;28;19920;-73
2023/05/05 01:25:53;;;;;;;9.68;5.30;;;;;;;10.77;100.00;100568.38;5041374;28;20067;-74
2023/05/05 01:28:46;;;;;;;11.40;5.75;;;;;;;11.73;100.00;100703.28;5033485;28;20121;-74
2023/05/05 01:31:50;;;;;;;10.95;6.22;;;;;;;11.62;100.00;100698.91;5024488;28;20045;-74
2023/05/05 01:34:22;;;;;;;9.70;6.45;;;;;;;10.76;100.00;100551.75;5032768;28;20037;-74
2023/05/05 01:36:59;;;;;;;15.75;6.32;;;;;;;11.49;100.00;100680.50;5015604;28;20053;-75
2023/05/05 01:39:30;;;;;;;11.02;5.85;;;;;;;11.50;100.00;100687.53;5020549;28;20104;-75
2023/05/05 01:41:58;;;;;;;11.57;5.93;;;;;;;10.86;100.00;100580.63;5020058;28;20057;-75
2023/05/05 01:44:26;;;;;;;10.15;5.47;;;;;;;10.55;100.00;100549.94;5028384;28;20053;-75
2023/05/05 01:46:53;;;;;;;8.07;4.75;;;;;;;11.32;100.00;100643.72;5027893;28;20079;-74
2023/05/05 01:49:19;;;;;;;8.10;4.60;;;;;;;10.59;100.00;100557.84;5032445;28;20084;-73
2023/05/05 01:51:46;;;;;;;9.43;5.82;;;;;;;11.16;100.00;100656.81;5029390;28;20044;-73
2023/05/05 01:54:14;;;;;;;11.63;7.15;;;;;;;11.39;100.00;100679.63;5041875;28;20086;-75
2023/05/05 01:56:41;;;;;;;8.02;5.00;;;;;;;11.23;100.00;100678.72;5037638;28;20955;-72
2023/05/05 01:59:09;;;;;;;8.63;5.53;;;;;;;11.29;100.00;100665.59;5026500;28;20072;-74
2023/05/05 02:01:40;;;;;;;9.70;6.03;;;;;;;10.60;100.00;100533.34;5025010;28;20137;-74
2023/05/05 02:04:08;;;;;;;7.93;6.03;;;;;;;10.68;100.00;100536.88;5021465;28;20025;-73
2023/05/05 02:06:35;;;;;;;7.53;5.10;;;;;;;11.61;100.00;100647.22;5037788;28;20579;-73
2023/05/05 02:09:01;;;;;;;9.93;6.28;;;;;;;11.42;100.00;100613.94;5034442;28;20461;-75
2023/05/05 02:11:28;;;;;;;9.40;6.13;;;;;;;11.16;100.00;100633.19;5034582;28;20056;-74
2023/05/05 02:13:54;;;;;;;10.77;6.07;;;;;;;11.30;100.00;100674.34;5037965;28;20356;-74
2023/05/05 02:16:21;;;;;;;10.93;5.93;;;;;;;11.39;100.00;100671.75;5038038;28;20041;-74
2023/05/05 02:18:48;;;;;;;9.20;5.18;;;;;;;11.54;100.00;100656.00;5048887;28;20095;-74
2023/05/05 02:21:16;;;;;;;7.22;5.22;;;;;;;11.43;100.00;100660.38;5032819;28;20041;-74
2023/05/05 02:23:44;;;;;;;10.13;5.82;;;;;;;10.46;100.00;100514.94;5027760;28;20045;-73
2023/05/05 02:26:13;;;;;;;10.48;5.85;;;;;;;11.13;100.00;100596.41;5004760;28;20065;-73
2023/05/05 02:28:56;;;;;;;10.15;6.28;;;;;;;10.84;100.00;100562.28;5010313;28;20129;-74
2023/05/05 02:31:23;;;;;;;;;;;;;;;11.48;100.00;100684.03;5002930;28;20040;-77
2023/05/05 02:33:52;;;;;;;8.55;5.60;;;;;;;10.74;100.00;100557.88;5016981;28;19996;-73
2023/05/05 02:36:20;;;;;;;11.48;5.68;;;;;;;11.48;100.00;100678.75;5011112;28;20041;-74
2023/05/05 02:38:50;;;;;;;11.00;7.25;;;;;;;11.28;100.00;100663.84;5006870;28;20046;-74
2023/05/05 02:41:19;;;;;;;10.55;6.78;;;;;;;10.71;100.00;100561.34;5020642;28;20120;-73
2023/05/05 02:43:48;;;;;;;7.53;5.88;;;;;;;10.67;100.00;100546.47;5031090;28;20056;-73
2023/05/05 02:46:14;;;;;;;13.00;6.18;;;;;;;11.22;100.00;100660.34;5020840;28;20072;-74
2023/05/05 02:48:40;;;;;;;11.98;6.22;;;;;;;10.62;100.00;100570.97;5041555;28;20032;-73
2023/05/05 02:51:06;;;;;;;9.32;6.85;;;;;;;10.46;100.00;100533.31;5032151;28;20048;-73
2023/05/05 02:53:33;;;;;;;9.07;6.35;;;;;;;10.43;100.00;100521.06;5031533;28;20045;-73
2023/05/05 02:56:16;;;;;;;8.75;5.53;;;;;;;11.53;100.00;100653.34;5012950;28;20061;-73
2023/05/05 02:58:50;;;;;;;;;;;;;;;11.31;100.00;100650.72;5014333;28;20046;-74
2023/05/05 03:01:56;;;;;;;10.27;6.57;;;;;;;10.83;100.00;100592.00;5016907;28;19917;-74
2023/05/05 03:04:37;;;;;;;13.40;6.80;;;;;;;10.91;100.00;100611.28;5005388;28;20438;-72
2023/05/05 03:07:13;;;;;;;10.60;6.78;;;;;;;11.21;100.00;100641.06;5012055;28;20034;-73
2023/05/05 03:10:19;;;;;;;9.65;5.63;;;;;;;11.16;100.00;100638.44;5008329;28;20034;-72
2023/05/05 03:12:51;;;;;;;17.42;7.65;;;;;;;10.72;100.00;100544.75;4948178;28;20083;-75
2023/05/05 03:15:18;;;;;;;14.23;8.68;;;;;;;10.73;100.00;100509.75;5020587;28;20057;-73
2023/05/05 03:17:45;;;;;;;14.98;7.47;;;;;;;10.54;100.00;100498.38;5040852;28;20580;-74
2023/05/05 03:20:12;;;;;;;15.05;7.78;;;;;;;11.34;100.00;100663.84;5052999;28;20056;-74
2023/05/05 03:22:38;;;;;;;10.43;7.90;;;;;;;11.52;100.00;100657.75;5036630;28;20410;-75
2023/05/05 03:25:05;;;;;;;11.77;6.05;;;;;;;10.92;100.00;100515.00;5035246;28;20028;-74
2023/05/05 03:27:30;;;;;;;12.55;7.43;;;;;;;11.69;100.00;100662.13;5044258;28;20025;-76
2023/05/05 03:29:56;;;;;;;14.35;7.32;;;;;;;11.29;100.00;100578.06;5049450;28;20157;-73
2023/05/05 03:32:22;;;;;;;9.85;7.88;;;;;;;11.74;100.00;100640.19;5031436;28;20045;-74
2023/05/05 03:34:48;;;;;;;11.80;6.80;;;;;;;11.38;100.00;100634.09;5044342;28;20052;-74
2023/05/05 03:37:14;;;;;;;7.70;6.03;;;;;;;11.69;100.00;100668.25;5038404;28;20754;-75
2023/05/05 03:39:39;;;;;;;13.20;6.20;;;;;;;11.56;100.00;100669.13;5023419;28;20797;-75
2023/05/05 03:42:05;;;;;;;11.02;6.63;;;;;;;11.04;100.00;100567.53;5013833;28;20046;-75
2023/05/05 03:44:30;;;;;;;11.85;7.13;;;;;;;11.87;100.00;100674.34;5030367;28;20076;-76
2023/05/05 03:46:56;;;;;;;9.02;5.93;;;;;;;10.93;100.00;100557.03;5030662;28;20041;-74
2023/05/05 03:49:21;;;;;;;10.65;6.22;;;;;;;11.59;100.00;100690.16;5035052;28;20042;-74
2023/05/05 03:51:47;;;;;;;12.93;6.53;;;;;;;11.04;100.00;100606.91;5031405;28;20083;-76
2023/05/05 03:54:12;;;;;;;10.02;6.78;;;;;;;10.73;100.00;100587.63;5018466;28;20551;-74
2023/05/05 03:56:38;;;;;;;9.48;6.15;;;;;;;10.63;100.00;100550.00;5037791;28;20049;-75
2023/05/05 03:59:04;;;;;;;11.98;6.85;;;;;;;10.61;100.00;100559.59;5028497;28;20408;-74
2023/05/05 04:01:30;;;;;;;8.75;6.22;;;;;;;11.33;100.00;100692.75;5035512;28;20128;-73
2023/05/05 04:03:55;;;;;;;9.50;5.60;;;;;;;11.57;100.00;100691.91;5029152;28;20060;-74
2023/05/05 04:06:21;;;;;;;9.50;6.22;;;;;;;11.45;100.00;100695.41;5036209;28;20388;-74
2023/05/05 04:08:46;;;;;;;12.35;7.57;;;;;;;10.68;100.00;100569.25;5036466;28;20091;-73
2023/05/05 04:11:12;;;;;;;11.40;6.60;;;;;;;10.48;100.00;100558.69;5015640;28;20061;-72
2023/05/05 04:13:37;;;;;;;10.73;7.18;;;;;;;10.82;100.00;100597.28;5007934;28;20057;-75
2023/05/05 04:16:03;;;;;;;10.05;7.03;;;;;;;10.71;100.00;100605.97;5010124;28;20033;-73
2023/05/05 04:18:29;;;;;;;12.80;5.85;;;;;;;11.30;100.00;100698.88;5021758;28;21384;-74
2023/05/05 04:20:54;;;;;;;8.90;6.70;;;;;;;11.27;100.00;100700.63;5037578;28;20033;-73
2023/05/05 04:23:20;;;;;;;11.13;7.13;;;;;;;10.90;100.00;100645.41;5029968;28;20053;-73
2023/05/05 04:25:46;;;;;;;10.38;6.55;;;;;;;11.17;100.00;100684.84;5053821;28;20053;-74
2023/05/05 04:28:11;;;;;;;10.60;6.22;;;;;;;11.61;100.00;100696.25;5035231;28;20053;-74
2023/05/05 04:30:37;;;;;;;10.85;6.70;;;;;;;10.70;100.00;100556.09;5035786;28;20033;-74
2023/05/05 04:33:02;;;;;;;18.25;9.00;;;;;;;10.57;100.00;100555.22;5033388;28;20088;-74
2023/05/05 04:35:28;;;;;;;10.60;6.40;;;;;;;10.56;100.00;100571.84;5042649;28;20028;-74
2023/05/05 04:37:53;;;;;;;10.68;6.90;;;;;;;11.35;100.00;100691.00;5028770;28;20041;-73
2023/05/05 04:40:20;;;;;;;15.93;7.07;;;;;;;11.49;100.00;100696.28;5033573;28;20042;-76
2023/05/05 04:42:45;;;;;;;12.40;7.35;;;;;;;10.48;100.00;100555.19;5018031;28;20560;-73
2023/05/05 04:45:11;;;;;;;11.93;6.70;;;;;;;11.37;100.00;100684.00;5035916;28;20056;-74
2023/05/05 04:47:38;;;;;;;9.05;6.38;;;;;;;11.34;100.00;100670.88;5031482;28;20099;-76
2023/05/05 04:50:05;;;;;;;12.27;7.13;;;;;;;11.39;100.00;100703.28;5028373;28;20042;-74
2023/05/05 04:52:31;;;;;;;11.68;7.88;;;;;;;10.52;100.00;100547.31;5032246;28;20041;-74
2023/05/05 04:54:57;;;;;;;11.98;6.53;;;;;;;11.12;100.00;100656.81;5011367;28;20052;-79
2023/05/05 04:57:22;;;;;;;19.13;9.52;;;;;;;11.38;100.00;100707.66;5008172;28;20067;-74
2023/05/05 04:59:47;;;;;;;9.95;7.10;;;;;;;11.47;100.00;100692.75;5017066;28;20034;-75
2023/05/05 05:02:13;;;;;;;11.73;6.85;;;;;;;11.73;100.00;100704.19;5018396;28;20044;-74
2023/05/05 05:04:38;;;;;;;11.23;7.75;;;;;;;11.82;100.00;100676.97;5032942;28;20045;-73
2023/05/05 05:07:04;;;;;;;10.68;7.15;;;;;;;11.09;100.00;100599.03;5023954;28;20524;-73
2023/05/05 05:09:30;;;;;;;10.40;6.95;;;;;;;11.07;100.00;100611.28;5018915;28;20401;-73
2023/05/05 05:11:59;;;;;;;11.57;6.68;;;;;;;10.18;100.00;100486.00;5022679;28;20054;-74
2023/05/05 05:14:26;;;;;;;9.60;6.65;;;;;;;10.73;100.00;100583.25;5026472;28;20053;-73
2023/05/05 05:16:52;;;;;;;11.02;7.07;;;;;;;11.39;100.00;100691.00;5028684;28;20045;-73
2023/05/05 05:19:17;;;;;;;11.57;6.13;;;;;;;11.65;100.00;100720.81;5034170;28;20378;-74
2023/05/05 05:21:43;;;;;;;10.55;6.53;;;;;;;11.73;100.00;100733.09;5033942;28;20752;-76
2023/05/05 05:24:10;;;;;;;13.63;7.63;;;;;;;11.49;100.00;100697.13;5028981;28;20041;-73
2023/05/05 05:26:36;;;;;;;8.80;6.57;;;;;;;11.31;100.00;100599.94;5029025;28;20049;-76
2023/05/05 05:29:01;;;;;;;18.45;7.05;;;;;;;12.24;100.00;100731.34;5031919;28;20060;-73
2023/05/05 05:31:27;;;;;;;11.93;6.25;;;;;;;11.67;100.00;100632.31;5027891;28;20511;-76
2023/05/05 05:33:52;;;;;;;9.63;7.13;;;;;;;11.75;100.00;100641.06;5025633;28;20041;-73
2023/05/05 05:36:17;;;;;;;7.80;6.03;;;;;;;11.58;100.00;100680.50;5037093;28;20258;-74
2023/05/05 05:38:43;;;;;;;10.60;7.93;;;;;;;12.00;100.00;100789.22;5018763;28;20053;-74
2023/05/05 05:41:08;;;;;;;10.45;6.95;;;;;;;12.07;100.00;100804.13;5032235;28;20045;-75
2023/05/05 05:43:34;;;;;;;8.13;5.50;;;;;;;11.22;100.00;100708.50;5029130;28;20052;-75
2023/05/05 05:45:59;;;;;;;9.82;7.18;;;;;;;11.87;100.00;100812.03;5030000;28;20501;-73
2023/05/05 05:48:27;;;;;;;10.52;6.63;;;;;;;11.56;100.00;100825.03;5042574;28;20041;-75
2023/05/05 05:50:53;;;;;;;14.77;6.68;;;;;;;10.89;100.00;100685.66;5039705;28;20045;-75
2023/05/05 05:53:19;;;;;;;20.77;5.95;;;;;;;12.14;100.00;100824.28;5031548;28;20080;-73
2023/05/05 05:55:47;;;;;;;10.27;6.15;;;;;;;11.34;100.00;100720.78;5035966;28;20140;-73
2023/05/05 05:58:13;;;;;;;10.45;5.57;;;;;;;11.27;100.00;100711.13;5031187;28;20050;-73
2023/05/05 06:00:38;;;;;;;11.27;6.35;;;;;;;11.52;100.00;100686.66;5037260;28;20048;-74
2023/05/05 06:03:04;;;;;;;9.88;6.13;;;;;;;11.49;100.00;100733.06;5026590;28;20064;-76
2023/05/05 06:05:30;;;;;;;8.38;5.13;;;;;;;12.15;100.00;100835.69;5037529;28;20053;-74
2023/05/05 06:07:55;;;;;;;19.88;10.30;;;;;;;11.79;100.00;100737.47;5029552;28;20038;-73
2023/05/05 06:10:21;;;;;;;8.32;4.95;;;;;;;11.49;100.00;100733.94;5032811;28;20093;-74
2023/05/05 06:12:46;;;;;;;9.57;5.72;;;;;;;12.22;100.00;100832.19;5040788;28;20037;-76
2023/05/05 06:15:12;;;;;;;8.77;5.07;;;;;;;11.60;100.00;100744.47;5029190;28;20041;-74
2023/05/05 06:17:37;;;;;;;16.38;6.28;;;;;;;11.56;100.00;100709.41;5017666;28;20046;-74
2023/05/05 06:20:04;;;;;;;10.48;5.68;;;;;;;11.44;100.00;100719.03;5022467;28;20440;-75
2023/05/05 06:22:29;;;;;;;11.25;7.38;;;;;;;12.20;100.00;100819.03;5036144;28;20069;-75
2023/05/05 06:24:55;;;;;;;8.45;7.00;;;;;;;12.40;100.00;100816.38;5017842;28;20654;-73
2023/05/05 06:27:20;;;;;;;8.85;5.70;;;;;;;12.86;100.00;100839.13;5024275;28;20029;-74
2023/05/05 06:29:46;;;;;;;9.52;5.85;;;;;;;12.17;100.00;100740.09;5025666;28;20100;-74
2023/05/05 06:32:12;;;;;;;13.68;6.05;;;;;;;13.04;100.00;100865.44;5024686;28;20051;-75
2023/05/05 06:34:38;;;;;;;10.95;6.72;;;;;;;12.57;100.00;100725.97;5028313;28;20054;-75
2023/05/05 06:37:03;;;;;;;6.57;5.25;;;;;;;13.00;100.00;100741.63;5032827;28;20032;-75
2023/05/05 06:39:29;;;;;;;8.95;5.85;;;;;;;14.17;100.00;100886.00;5024734;28;20079;-76
2023/05/05 06:41:55;;;;;;;8.20;5.05;;;;;;;14.02;100.00;100848.25;5027348;28;20049;-71
2023/05/05 06:44:20;;;;;;;9.98;5.72;;;;;;;14.14;100.00;100931.75;5027736;28;20100;-70
2023/05/05 06:46:46;;;;;;;12.68;6.28;;;;;;;13.25;100.00;100809.13;5026121;28;20050;-74
2023/05/05 06:49:11;;;;;;;8.45;4.95;;;;;;;13.69;100.00;100804.53;5030061;28;20045;-73
2023/05/05 06:51:37;;;;;;;6.57;4.65;;;;;;;14.06;100.00;100813.03;5028179;28;20041;-75
2023/05/05 06:54:02;;;;;;;10.75;4.88;;;;;;;14.77;100.00;100932.19;5030069;28;20167;-76
2023/05/05 06:56:29;;;;;;;10.75;6.05;;;;;;;14.08;100.00;100837.66;5029013;28;20064;-73
2023/05/05 06:58:54;;;;;;;9.05;5.60;;;;;;;13.93;100.00;100727.00;5027931;28;20051;-76
2023/05/05 07:01:20;;;;;;;6.82;4.30;;;;;;;14.03;100.00;100846.53;5035183;28;20349;-74
2023/05/05 07:03:45;;;;;;;6.80;4.03;;;;;;;14.22;100.00;100873.66;5033936;28;20084;-73
2023/05/05 07:06:11;;;;;;;6.88;3.97;;;;;;;14.79;100.00;100977.06;5031989;28;20061;-76
2023/05/05 07:08:36;;;;;;;6.30;4.15;;;;;;;14.32;100.00;100857.69;5038477;28;20045;-73
2023/05/05 07:11:02;;;;;;;7.22;3.85;;;;;;;15.09;100.00;100970.66;5034249;28;20110;-75
2023/05/05 07:13:27;;;;;;;8.40;4.03;;;;;;;14.88;100.00;100941.78;5036500;28;20045;-73
2023/05/05 07:15:53;;;;;;;11.20;5.20;;;;;;;15.15;100.00;100964.44;5030416;28;20030;-74
2023/05/05 07:18:19;;;;;;;7.50;4.10;;;;;;;14.91;100.00;100981.38;5055245;28;20152;-74
2023/05/05 07:20:46;;;;;;;7.75;4.47;;;;;;;14.90;100.00;100947.94;5024971;28;20045;-74
2023/05/05 07:23:11;;;;;;;5.95;4.35;;;;;;;14.93;100.00;100975.19;5012841;28;20050;-74
2023/05/05 07:25:37;;;;;;;8.55;4.07;;;;;;;15.46;100.00;100930.59;5020522;28;20041;-74
2023/05/05 07:28:03;;;;;;;7.15;4.45;;;;;;;15.55;100.00;100868.78;5036810;28;20037;-74
2023/05/05 07:30:29;;;;;;;7.03;3.72;;;;;;;14.83;100.00;100866.97;5035556;28;20112;-75
2023/05/05 07:32:55;;;;;;;6.63;4.00;;;;;;;14.31;100.00;100783.81;5032258;28;20037;-74
2023/05/05 07:35:21;;;;;;;7.15;4.20;;;;;;;14.89;100.00;100878.38;5040332;28;20044;-73
2023/05/05 07:37:47;;;;;;;5.72;3.58;;;;;;;15.06;100.00;100894.03;5028850;28;20095;-73
2023/05/05 07:40:13;;;;;;;7.50;3.95;;;;;;;15.60;100.00;100992.16;5028767;28;20042;-73
2023/05/05 07:42:38;;;;;;;5.30;3.08;;;;;;;16.20;100.00;100990.53;5019413;28;20507;-74
2023/05/05 07:45:05;;;;;;;5.85;3.25;;;;;;;15.24;100.00;100897.34;5036839;28;20048;-74
2023/05/05 07:47:30;;;;;;;10.55;3.67;;;;;;;15.94;100.00;101028.81;5038813;28;20053;-74
2023/05/05 07:49:56;;;;;;;4.93;3.30;;;;;;;15.82;100.00;101002.50;5033096;28;20440;-73
2023/05/05 07:52:22;;;;;;;11.90;2.50;;;;;;;16.41;100.00;101019.41;5044914;28;20524;-71
2023/05/05 07:54:47;;;;;;;6.45;4.50;;;;;;;16.14;100.00;101019.75;5037858;28;20025;-70
2023/05/05 07:57:13;;;;;;;6.00;3.08;;;;;;;15.76;100.00;101024.63;5015805;28;20037;-71
2023/05/05 07:59:42;;;;;;;4.63;2.50;;;;;;;16.12;100.00;101024.19;5027606;28;20791;-72
2023/05/05 08:02:12;;;;;;;4.45;3.00;;;;;;;15.69;100.00;101027.34;5019367;28;20212;-71
2023/05/05 08:04:41;;;;;;;6.38;3.50;;;;;;;15.86;100.00;101011.28;5022496;28;20727;-70
2023/05/05 08:07:08;;;;;;;6.40;2.85;;;;;;;16.02;100.00;101013.72;5024610;28;20038;-69
2023/05/05 08:09:34;;;;;;;4.65;2.97;;;;;;;16.38;100.00;101019.41;5000774;28;20485;-69
2023/05/05 08:12:01;;;;;;;4.68;2.55;;;;;;;16.21;100.00;100942.00;5006803;28;20810;-70
2023/05/05 08:14:26;;;;;;;8.57;4.05;;;;;;;16.39;100.00;101046.81;4997254;28;20156;-71
2023/05/05 08:16:52;;;;;;;5.85;2.60;;;;;;;16.90;100.00;101049.59;5006253;28;20054;-71
2023/05/05 08:19:18;;;;;;;5.25;3.30;;;;;;;16.82;100.00;101036.47;5010974;28;20042;-70
2023/05/05 08:21:43;;;;;;;7.88;3.45;;;;;;;16.39;100.00;100962.03;5041196;28;20497;-70
2023/05/05 08:24:09;;;;;;;4.30;2.17;;;;;;;16.30;100.00;101026.59;5040144;28;20076;-71
2023/05/05 08:26:34;;;;;;;5.85;3.72;;;;;;;15.93;100.00;101021.78;5030342;28;20052;-70
2023/05/05 08:29:00;;;;;;;4.53;2.70;;;;;;;16.14;100.00;101028.56;5041440;28;20084;-70
2023/05/05 08:31:27;;;;;;;6.55;3.67;;;;;;;16.09;100.00;101017.19;5024379;28;20053;-70
2023/05/05 08:33:53;;;;;;;3.97;2.72;;;;;;;15.96;100.00;101008.50;5025766;28;20064;-71
2023/05/05 08:36:18;;;;;;;6.25;3.45;;;;;;;15.91;100.00;100965.34;5006721;28;20057;-73
2023/05/05 08:38:44;;;;;;;5.90;2.78;;;;;;;16.81;100.00;101050.63;5009840;28;20478;-76
2023/05/05 08:41:12;;;;;;;6.22;2.55;;;;;;;16.73;100.00;101015.38;5018054;28;20082;-75
2023/05/05 08:43:38;;;;;;;5.13;2.88;;;;;;;16.96;100.00;101049.50;5017161;28;20136;-77
2023/05/05 08:46:04;;;;;;;4.30;2.60;;;;;;;17.71;100.00;101037.53;5041183;28;20186;-74
2023/05/05 08:48:32;;;;;;;7.97;3.95;;;;;;;17.48;100.00;101077.78;5026517;28;20033;-80
2023/05/05 08:51:01;;;;;;;4.53;2.30;;;;;;;17.82;100.00;101074.53;5025588;28;20405;-75
2023/05/05 08:53:40;;;;;;;4.47;2.95;;;;;;;18.29;100.00;101091.31;5028092;28;20042;-75
2023/05/05 08:56:06;;;;;;;4.90;3.05;;;;;;;18.10;100.00;100978.38;5028430;28;20109;-75
2023/05/05 08:58:36;;;;;;;7.43;2.92;;;;;;;18.08;100.00;101062.53;5024243;28;20038;-74
2023/05/05 09:01:02;;;;;;;5.50;2.67;;;;;;;19.38;100.00;101077.25;5026468;28;20069;-74
2023/05/05 09:03:28;;;;;;;4.22;2.53;;;;;;;16.38;100.00;100954.97;5024394;28;20135;-75
2023/05/05 09:05:54;;;;;;;5.82;3.58;;;;;;;18.51;100.00;101059.81;5024293;28;20136;-74
2023/05/05 09:08:20;;;;;;;4.78;2.55;;;;;;;18.45;100.00;100996.19;5017860;28;20504;-75
2023/05/05 09:10:47;;;;;;;8.52;2.78;;;;;;;18.64;100.00;100995.75;5039035;28;20056;-73
2023/05/05 09:13:13;;;;;;;4.50;3.20;;;;;;;19.89;100.00;101095.47;5039834;28;20564;-76
2023/05/05 09:15:40;;;;;;;5.50;2.67;;;;;;;19.98;100.00;101086.34;5025570;28;20039;-74
2023/05/05 09:18:10;;;;;;;5.00;2.63;;;;;;;20.30;100.00;101101.41;5038981;28;20064;-75
2023/05/05 09:20:38;;;;;;;5.15;2.75;;;;;;;18.79;100.00;101007.81;5010717;28;20046;-75
2023/05/05 09:23:12;;;;;;;4.50;2.67;;;;;;;19.06;100.00;101052.38;5015790;28;20092;-74
2023/05/05 09:25:39;;;;;;;5.05;2.58;;;;;;;18.39;100.00;100988.34;5024658;28;20045;-74
2023/05/05 09:28:13;;;;;;;5.40;2.63;;;;;;;17.75;100.00;100989.69;5025075;28;20033;-74
2023/05/05 09:30:40;;;;;;;8.30;2.38;;;;;;;18.99;100.00;101000.22;5025207;28;20771;-73
2023/05/05 09:33:06;;;;;;;4.20;2.85;;;;;;;18.95;100.00;100971.97;5024988;28;20542;-75
2023/05/05 09:35:49;;;;;;;3.13;1.92;;;;;;;19.07;100.00;100986.72;5023805;28;20089;-74
2023/05/05 09:38:15;;;;;;;3.45;2.55;;;;;;;19.23;100.00;101083.00;5011615;28;20377;-75
2023/05/05 09:40:51;;;;;;;5.22;2.80;;;;;;;18.64;100.00;100993.09;5017103;28;20148;-77
2023/05/05 09:43:18;;;;;;;5.72;2.78;;;;;;;17.17;100.00;101069.47;5022726;28;20044;-76
2023/05/05 09:45:44;;;;;;;7.97;3.28;;;;;;;17.15;100.00;101059.81;5021176;28;20120;-72
2023/05/05 09:48:29;;;;;;;8.75;3.50;;;;;;;17.23;100.00;100978.31;5024745;28;20620;-74
2023/05/05 09:50:56;;;;;;;3.78;2.22;;;;;;;16.61;100.00;100971.38;5024073;28;20156;-74
2023/05/05 09:53:22;;;;;;;3.50;2.50;;;;;;;17.24;100.00;101067.59;5014032;28;20068;-74
2023/05/05 09:55:59;;;;;;;3.40;2.10;;;;;;;16.56;100.00;100956.47;5018609;28;20100;-76
2023/05/05 09:58:29;;;;;;;6.15;2.80;;;;;;;16.50;100.00;100968.03;5019062;28;20060;-75
2023/05/05 10:00:56;;;;;;;5.25;3.00;;;;;;;16.39;100.00;100954.09;5013103;28;20033;-74
2023/05/05 10:03:22;;;;;;;5.35;3.20;;;;;;;16.68;100.00;101019.88;5026596;28;20127;-75
2023/05/05 10:05:52;;;;;;;8.32;3.58;;;;;;;16.35;100.00;101058.31;5013615;28;20060;-76
2023/05/05 10:08:19;;;;;;;6.38;4.00;;;;;;;16.19;100.00;100959.66;5015416;28;20053;-75
2023/05/05 10:10:50;;;;;;;4.60;2.25;;;;;;;16.72;100.00;101050.72;5011516;28;20056;-75
2023/05/05 10:13:18;;;;;;;5.07;3.42;;;;;;;16.72;100.00;101041.91;5024663;28;20065;-75
2023/05/05 10:15:46;;;;;;;6.55;3.13;;;;;;;15.78;100.00;100939.91;5025502;28;20038;-75
2023/05/05 10:18:14;;;;;;;6.20;3.17;;;;;;;16.93;100.00;101035.41;5025159;28;20049;-75
2023/05/05 10:20:42;;;;;;;6.32;3.03;;;;;;;16.09;100.00;100936.88;5006056;28;20038;-76
2023/05/05 10:23:13;;;;;;;6.05;3.40;;;;;;;16.16;100.00;100995.00;5005566;28;20046;-73
2023/05/05 10:25:45;;;;;;;3.97;2.42;;;;;;;17.07;100.00;101051.97;5004120;28;20050;-70
2023/05/05 10:28:18;;;;;;;5.80;2.40;;;;;;;16.96;100.00;101051.28;5016695;28;20046;-74
2023/05/05 10:30:47;;;;;;;4.10;2.92;;;;;;;17.06;100.00;101029.00;5004293;28;20045;-74
2023/05/05 10:33:18;;;;;;;4.75;2.38;;;;;;;16.95;100.00;101055.72;5009206;28;20136;-75
2023/05/05 10:35:48;;;;;;;7.85;3.15;;;;;;;16.73;100.00;101017.16;5008109;28;20049;-74
2023/05/05 10:38:16;;;;;;;5.53;2.58;;;;;;;16.64;100.00;101048.16;5011744;28;20050;-75
2023/05/05 10:40:44;;;;;;;5.18;2.65;;;;;;;16.72;100.00;101028.66;5023772;28;20046;-73
2023/05/05 10:43:10;;;;;;;3.65;1.75;;;;;;;16.93;100.00;101046.91;5028141;28;20587;-72
2023/05/05 10:45:36;;;;;;;3.72;2.47;;;;;;;16.63;100.00;100936.94;5028713;28;20037;-74
2023/05/05 10:48:07;;;;;;;6.72;3.05;;;;;;;16.04;100.00;100884.88;5042557;28;20059;-74
2023/05/05 10:50:38;;;;;;;6.35;2.97;;;;;;;16.61;100.00;100920.19;5028623;28;20120;-74
2023/05/05 10:53:23;;;;;;;3.38;2.25;;;;;;;16.54;100.00;100911.44;5027114;28;20049;-74
2023/05/05 10:55:49;;;;;;;4.60;2.55;;;;;;;17.15;100.00;101033.28;5024990;28;20079;-75
2023/05/05 10:58:41;;;;;;;4.60;2.95;;;;;;;17.19;100.00;101032.34;5026657;28;20083;-74
2023/05/05 11:01:06;;;;;;;4.88;2.25;;;;;;;16.80;100.00;100926.94;5023322;28;20460;-76
2023/05/05 11:03:32;;;;;;;3.55;2.28;;;;;;;17.32;100.00;101023.25;5027706;28;20041;-75
2023/05/05 11:06:04;;;;;;;4.20;2.78;;;;;;;17.79;100.00;101042.69;5001827;28;20103;-75
2023/05/05 11:08:32;;;;;;;4.93;2.15;;;;;;;17.89;100.00;101040.78;5002989;28;20068;-75
2023/05/05 11:10:59;;;;;;;5.68;1.83;;;;;;;17.68;100.00;101007.56;5016937;28;20049;-74
2023/05/05 11:13:25;;;;;;;4.50;2.15;;;;;;;17.50;100.00;101006.97;5025676;28;20041;-70
2023/05/05 11:15:52;;;;;;;3.88;2.25;;;;;;;17.50;100.00;101008.78;5020807;28;20485;-71
2023/05/05 11:18:29;;;;;;;5.15;2.58;;;;;;;17.54;100.00;101018.44;5028563;28;20025;-71